Aérodrome :
LOGIN :

S'inscrire | Disclaimer

   EN    FR    IT 

 










Légende :    VFR   VFR Marginal   IFR   IFR Intensif   IFR Très Intensif
Visi : 
Plafond : 
>= 8 km
>= 3000ft
5 à 8 km
1000 à 3000 ft
1500m à 5 km
500 à 1000 ft
800 à 1500m
200 à 500 ft
< 800m
< 200 ft
Symboles :   Orages  Brouillard  Fortes neiges  Fortes précipitations  Vent > 20 kt
SIGMETs :   Divers  Orages  Givrage  Turbulence  Onde Orograph.  Cendres Volcan.







- Altitude de l'aérodrome : 844 ft
- Code IATA : OSR


LKMT - Ostrava-Mosnov

DERNIER METAR :
  • 260330Z 02009KT 4500 -DZ BR BKN004 OVC013 06/05 Q1008 NOSIG

METARs EXPIRÉS :
  • 260300Z 01009KT 6000 -RA BR FEW006 OVC012 06/05 Q1009 TEMPO 3500 -RA BR
  • 260230Z 03009KT 7000 -RA OVC007 06/05 Q1008 NOSIG
  • 260200Z 03008KT 7000 -RA OVC007 06/05 Q1008 NOSIG
  • 260130Z 36010KT 9999 SCT013 OVC017 07/04 Q1009 NOSIG
  • 260100Z 01010KT 9999 SCT014 OVC017 07/04 Q1009 NOSIG

TAF TAF LKMT
Valide du 26 à 00h jusqu'au 27 à 06h UTC


252300Z 2600/2706 02010KT 9999 BKN015
BECMG 2600/2602 7000 -RA BKN013
TEMPO 2602/2706 5000 RA BKN007
PROB30
TEMPO 2602/2706 3000 RA BKN004
Pas de NOTAMs connus pour ce terrain.



MET'MAP, la Météo Aéronautique d'un coup d'oeil ! - Copyright ORBIFLY Décembre 2007 - Disclaimer

ORBIFLY MET'MAP TEAM :

Programmation & Développement : Alexandra Zaïnal
Conception & Développement : Baudouin d'Aumeries
Co-Programmation & Développement : Marc-Olivier Méhu
Soutien technique & logistique : Manuel Goepfert

Contact : metmap@orbifly.com




SOURCES & CREDITS :

   NOAA